Time;durP1;ratioP1;P1;durP2;ratioP2;P2;SDS_P1;SDS_P2;PMS_P1;PMS_P2;Temp;Humidity;BMP_temperature;BMP_pressure;BME280_temperature;BME280_humidity;BME280_pressure;Samples;Min_cycle;Max_cycle;Signal;HPM_P1;HPM_P2
2023/06/23 00:01:14;;;;;;;7.65;5.05;;;16.60;99.90;;;;;;5072926;28;20032;-76
2023/06/23 00:03:40;;;;;;;9.68;4.95;;;16.50;99.90;;;;;;5074706;28;20229;-75
2023/06/23 00:06:06;;;;;;;8.07;4.70;;;16.50;99.90;;;;;;5073327;28;20368;-76
2023/06/23 00:08:33;;;;;;;6.97;4.55;;;16.40;99.90;;;;;;5077922;28;20063;-75
2023/06/23 00:10:58;;;;;;;5.10;4.57;;;16.40;99.90;;;;;;5074189;28;20036;-75
2023/06/23 00:13:24;;;;;;;8.25;4.75;;;16.40;99.90;;;;;;5067868;28;20024;-75
2023/06/23 00:15:52;;;;;;;8.63;4.82;;;16.40;99.90;;;;;;5074497;28;20069;-76
2023/06/23 00:18:18;;;;;;;7.43;4.90;;;16.30;99.90;;;;;;5069640;28;20050;-75
2023/06/23 00:20:43;;;;;;;8.63;4.75;;;16.30;99.90;;;;;;5074707;28;20032;-75
2023/06/23 00:23:09;;;;;;;7.00;4.32;;;16.20;99.90;;;;;;5065353;28;20214;-76
2023/06/23 00:25:35;;;;;;;7.18;4.50;;;16.30;99.90;;;;;;5070367;28;20077;-75
2023/06/23 00:28:01;;;;;;;6.75;5.03;;;16.20;99.90;;;;;;5071177;28;20023;-75
2023/06/23 00:30:26;;;;;;;6.85;4.75;;;16.20;99.90;;;;;;5074525;28;20032;-75
2023/06/23 00:32:52;;;;;;;7.65;4.80;;;16.10;99.90;;;;;;5071185;28;20412;-76
2023/06/23 00:35:18;;;;;;;9.35;4.55;;;16.10;99.90;;;;;;5074440;28;20530;-76
2023/06/23 00:37:44;;;;;;;7.78;4.43;;;16.00;99.90;;;;;;5064979;28;20064;-75
2023/06/23 00:40:10;;;;;;;5.72;4.65;;;16.00;99.90;;;;;;5062853;28;20079;-76
2023/06/23 00:42:47;;;;;;;8.38;4.65;;;15.90;99.90;;;;;;5063809;28;20303;-77
2023/06/23 00:45:13;;;;;;;6.15;4.55;;;15.90;99.90;;;;;;5074239;28;20062;-76
2023/06/23 00:47:42;;;;;;;5.45;4.05;;;15.90;99.90;;;;;;5071282;28;20442;-75
2023/06/23 00:50:08;;;;;;;5.30;4.65;;;15.90;99.90;;;;;;5088002;28;20024;-75
2023/06/23 00:52:33;;;;;;;8.23;4.40;;;15.90;99.90;;;;;;5073351;28;20039;-75
2023/06/23 00:55:02;;;;;;;5.57;4.22;;;15.80;99.90;;;;;;5076121;28;20627;-75
2023/06/23 00:57:28;;;;;;;7.15;4.43;;;15.80;99.90;;;;;;5076407;28;20063;-75
2023/06/23 00:59:54;;;;;;;6.22;4.63;;;15.70;99.90;;;;;;5075255;28;20473;-76
2023/06/23 01:02:20;;;;;;;6.47;4.43;;;15.70;99.90;;;;;;5071540;28;20123;-76
2023/06/23 01:04:48;;;;;;;6.05;4.95;;;15.70;99.90;;;;;;5065304;28;20101;-75
2023/06/23 01:07:36;;;;;;;8.95;4.68;;;15.70;99.90;;;;;;5068682;28;20028;-75
2023/06/23 01:10:19;;;;;;;6.97;4.82;;;15.70;99.90;;;;;;5076370;28;20031;-76
2023/06/23 01:12:57;;;;;;;7.72;4.78;;;15.70;99.90;;;;;;5075615;28;20046;-75
2023/06/23 01:15:31;;;;;;;7.22;5.05;;;15.70;99.90;;;;;;5075101;28;20046;-76
2023/06/23 01:18:24;;;;;;;7.47;5.30;;;15.70;99.90;;;;;;5073624;28;20193;-75
2023/06/23 01:20:52;;;;;;;10.63;5.60;;;15.60;99.90;;;;;;5063260;28;20096;-75
2023/06/23 01:23:55;;;;;;;9.07;5.32;;;15.60;99.90;;;;;;5069280;28;20216;-75
2023/06/23 01:26:36;;;;;;;11.55;6.43;;;15.60;99.90;;;;;;5075452;28;20055;-76
2023/06/23 01:29:08;;;;;;;7.97;5.47;;;15.60;99.90;;;;;;5077084;28;20580;-76
2023/06/23 01:31:43;;;;;;;8.73;5.55;;;15.60;99.90;;;;;;5074995;28;20031;-76
2023/06/23 01:34:10;;;;;;;9.55;6.03;;;15.60;99.90;;;;;;5060667;28;20040;-75
2023/06/23 01:36:43;;;;;;;6.90;4.95;;;15.50;99.90;;;;;;5068678;28;20032;-76
2023/06/23 01:39:13;;;;;;;8.60;5.30;;;15.50;99.90;;;;;;5081235;28;20045;-75
2023/06/23 01:41:46;;;;;;;7.45;5.47;;;15.50;99.90;;;;;;5072351;28;20312;-75
2023/06/23 01:44:14;;;;;;;6.85;4.90;;;15.40;99.90;;;;;;5067980;28;20086;-76
2023/06/23 01:46:46;;;;;;;7.10;4.40;;;15.40;99.90;;;;;;5070991;28;20032;-75
2023/06/23 01:49:16;;;;;;;6.75;5.15;;;15.40;99.90;;;;;;5067038;28;20750;-76
2023/06/23 01:51:46;;;;;;;10.57;5.30;;;15.30;99.90;;;;;;5074730;28;20024;-76
2023/06/23 01:54:14;;;;;;;6.43;5.18;;;15.30;99.90;;;;;;5064447;28;20113;-76
2023/06/23 01:56:43;;;;;;;7.65;4.53;;;15.30;99.90;;;;;;5075678;28;20414;-76
2023/06/23 01:59:11;;;;;;;11.63;6.05;;;15.20;99.90;;;;;;5081067;28;20034;-76
2023/06/23 02:01:38;;;;;;;6.78;4.95;;;15.20;99.90;;;;;;5076302;28;20035;-76
2023/06/23 02:04:05;;;;;;;7.15;5.35;;;15.20;99.90;;;;;;5069593;22;20076;-74
2023/06/23 02:06:35;;;;;;;7.47;5.30;;;15.10;99.90;;;;;;5031033;28;20090;-74
2023/06/23 02:09:03;;;;;;;8.05;5.25;;;15.10;99.90;;;;;;5035053;28;20173;-74
2023/06/23 02:11:29;;;;;;;7.43;5.18;;;15.10;99.90;;;;;;5027809;28;20080;-75
2023/06/23 02:13:56;;;;;;;8.95;5.65;;;15.10;99.90;;;;;;5025394;28;20047;-74
2023/06/23 02:16:23;;;;;;;8.48;5.80;;;15.10;99.90;;;;;;5032193;28;20116;-74
2023/06/23 02:18:54;;;;;;;8.65;4.93;;;15.10;99.90;;;;;;5039620;28;20025;-74
2023/06/23 02:21:21;;;;;;;7.30;4.53;;;15.10;99.90;;;;;;5033300;28;20322;-73
2023/06/23 02:23:48;;;;;;;7.32;4.80;;;15.10;99.90;;;;;;5043840;28;20066;-74
2023/06/23 02:26:14;;;;;;;6.75;4.68;;;15.00;99.90;;;;;;5038622;28;20032;-74
2023/06/23 02:28:41;;;;;;;8.68;4.97;;;15.00;99.90;;;;;;5035812;28;20021;-73
2023/06/23 02:31:08;;;;;;;6.53;5.25;;;15.00;99.90;;;;;;5034089;28;20116;-73
2023/06/23 02:33:34;;;;;;;8.15;5.07;;;14.90;99.90;;;;;;5026364;28;20025;-73
2023/06/23 02:36:02;;;;;;;7.13;4.78;;;14.90;99.90;;;;;;5033017;28;20033;-73
2023/06/23 02:38:30;;;;;;;9.32;5.00;;;14.90;99.90;;;;;;5031974;28;20031;-73
2023/06/23 02:40:57;;;;;;;7.43;5.20;;;14.90;99.90;;;;;;5038184;28;20472;-74
2023/06/23 02:43:38;;;;;;;6.05;4.60;;;14.90;99.90;;;;;;5034918;28;20431;-74
2023/06/23 02:46:08;;;;;;;6.25;3.88;;;14.90;99.90;;;;;;5032450;28;20028;-73
2023/06/23 02:48:39;;;;;;;6.55;4.60;;;14.80;99.90;;;;;;5036726;28;20044;-73
2023/06/23 02:51:09;;;;;;;5.13;4.03;;;14.80;99.90;;;;;;5035093;28;20459;-74
2023/06/23 02:53:42;;;;;;;7.40;4.43;;;14.70;99.90;;;;;;5036832;28;20021;-73
2023/06/23 02:56:15;;;;;;;6.30;4.38;;;14.70;99.90;;;;;;5032858;28;20071;-74
2023/06/23 02:58:41;;;;;;;5.22;4.07;;;14.70;99.90;;;;;;5033208;28;20390;-74
2023/06/23 03:01:08;;;;;;;7.32;4.05;;;14.60;99.90;;;;;;5031149;28;20437;-74
2023/06/23 03:03:36;;;;;;;6.60;4.30;;;14.60;99.90;;;;;;5046130;22;20448;-73
2023/06/23 03:06:02;;;;;;;7.90;4.32;;;14.60;99.90;;;;;;5079465;28;20024;-73
2023/06/23 03:08:28;;;;;;;6.22;4.13;;;14.60;99.90;;;;;;5075979;28;20039;-73
2023/06/23 03:10:54;;;;;;;7.95;4.57;;;14.60;99.90;;;;;;5077596;28;20578;-73
2023/06/23 03:13:20;;;;;;;7.28;4.32;;;14.60;99.90;;;;;;5071337;28;20558;-73
2023/06/23 03:15:49;;;;;;;11.85;4.85;;;14.60;99.90;;;;;;5077501;28;20036;-73
2023/06/23 03:18:20;;;;;;;8.65;4.20;;;14.60;99.90;;;;;;5070323;28;20778;-73
2023/06/23 03:20:52;;;;;;;6.13;4.13;;;14.60;99.90;;;;;;5073060;28;20478;-73
2023/06/23 03:23:20;;;;;;;5.38;4.30;;;14.60;99.90;;;;;;5078425;28;20036;-74
2023/06/23 03:25:47;;;;;;;6.68;4.53;;;14.60;99.90;;;;;;5076643;28;20043;-73
2023/06/23 03:28:19;;;;;;;6.97;4.40;;;14.60;99.90;;;;;;5078146;28;20535;-73
2023/06/23 03:30:48;;;;;;;7.00;4.20;;;14.60;99.90;;;;;;5072181;28;20039;-73
2023/06/23 03:33:52;;;;;;;7.28;4.68;;;14.50;99.90;;;;;;5076999;28;20028;-73
2023/06/23 03:36:24;;;;;;;4.50;3.75;;;14.50;99.90;;;;;;5063430;28;20507;-73
2023/06/23 03:38:59;;;;;;;7.85;4.45;;;14.50;99.90;;;;;;5069585;28;20449;-73
2023/06/23 03:41:29;;;;;;;5.43;4.10;;;14.40;99.90;;;;;;5077764;28;20439;-73
2023/06/23 03:44:05;;;;;;;6.78;4.50;;;14.40;99.90;;;;;;5071501;28;20123;-73
2023/06/23 03:46:45;;;;;;;6.88;3.95;;;14.40;99.90;;;;;;5070340;28;20063;-73
2023/06/23 03:49:14;;;;;;;5.72;4.00;;;14.40;99.90;;;;;;5072630;28;20039;-73
2023/06/23 03:51:42;;;;;;;7.90;4.32;;;14.40;99.90;;;;;;5071091;28;20620;-74
2023/06/23 03:54:11;;;;;;;6.50;4.00;;;14.30;99.90;;;;;;5075774;28;20043;-73
2023/06/23 03:56:38;;;;;;;6.90;4.10;;;14.30;99.90;;;;;;5076713;28;20157;-73
2023/06/23 03:59:05;;;;;;;5.80;4.28;;;14.30;99.90;;;;;;5073781;28;20110;-72
2023/06/23 04:01:32;;;;;;;6.25;4.35;;;14.30;99.90;;;;;;5067557;28;20024;-74
2023/06/23 04:03:59;;;;;;;7.32;4.40;;;14.30;99.90;;;;;;5073107;28;20040;-74
2023/06/23 04:06:27;;;;;;;6.65;4.18;;;14.40;99.90;;;;;;5077979;28;20535;-74
2023/06/23 04:08:57;;;;;;;6.68;4.65;;;14.40;99.90;;;;;;5074729;28;20027;-73
2023/06/23 04:11:25;;;;;;;9.63;4.90;;;14.40;99.90;;;;;;5072529;28;20072;-73
2023/06/23 04:13:51;;;;;;;7.95;4.90;;;14.40;99.90;;;;;;5072876;28;20020;-73
2023/06/23 04:16:18;;;;;;;7.22;4.80;;;14.50;99.90;;;;;;5066451;28;20507;-74
2023/06/23 04:18:46;;;;;;;7.28;4.72;;;14.50;99.90;;;;;;5075801;28;20395;-73
2023/06/23 04:21:15;;;;;;;7.07;4.50;;;14.50;99.90;;;;;;5073924;28;20104;-73
2023/06/23 04:23:42;;;;;;;8.32;5.43;;;14.60;99.90;;;;;;5070387;28;20036;-73
2023/06/23 04:26:10;;;;;;;7.93;5.32;;;14.60;99.90;;;;;;5067116;28;20024;-73
2023/06/23 04:28:39;;;;;;;7.50;5.05;;;14.60;99.90;;;;;;5070668;28;20035;-73
2023/06/23 04:31:09;;;;;;;7.25;5.20;;;14.60;99.90;;;;;;5073310;28;20031;-73
2023/06/23 04:33:36;;;;;;;7.07;4.70;;;14.70;99.90;;;;;;5073538;28;20135;-73
2023/06/23 04:36:14;;;;;;;7.35;4.60;;;14.70;99.90;;;;;;5075085;28;20122;-74
2023/06/23 04:38:45;;;;;;;5.80;4.57;;;14.70;99.90;;;;;;5072634;28;20400;-73
2023/06/23 04:41:16;;;;;;;6.78;4.93;;;14.80;99.90;;;;;;5073658;28;20024;-74
2023/06/23 04:43:44;;;;;;;9.70;4.55;;;14.80;99.90;;;;;;5072914;28;20055;-74
2023/06/23 04:46:22;;;;;;;5.88;4.13;;;14.80;99.90;;;;;;5071104;28;20521;-74
2023/06/23 04:48:55;;;;;;;8.23;4.50;;;14.80;99.90;;;;;;5070429;28;20524;-74
2023/06/23 04:51:24;;;;;;;6.45;4.25;;;14.90;99.90;;;;;;5066140;28;20034;-74
2023/06/23 04:53:56;;;;;;;6.43;4.57;;;15.00;99.90;;;;;;5072436;28;20576;-74
2023/06/23 04:56:25;;;;;;;5.38;3.85;;;15.10;99.90;;;;;;5071146;28;20020;-73
2023/06/23 04:58:54;;;;;;;8.27;4.18;;;15.30;99.90;;;;;;5065625;28;20111;-74
2023/06/23 05:01:20;;;;;;;6.32;4.40;;;15.40;99.90;;;;;;5073305;28;20143;-74
2023/06/23 05:03:51;;;;;;;6.45;3.95;;;15.50;99.90;;;;;;5071350;28;20439;-74
2023/06/23 05:06:18;;;;;;;5.45;4.13;;;15.60;99.90;;;;;;5075752;28;20032;-74
2023/06/23 05:08:47;;;;;;;7.82;4.22;;;15.70;99.90;;;;;;5063649;28;20024;-74
2023/06/23 05:11:14;;;;;;;7.53;3.53;;;15.80;99.90;;;;;;5074632;28;20028;-73
2023/06/23 05:13:42;;;;;;;7.30;4.10;;;15.80;99.90;;;;;;5071736;28;20030;-74
2023/06/23 05:16:11;;;;;;;5.47;4.18;;;15.90;99.90;;;;;;5066796;28;20399;-74
2023/06/23 05:18:38;;;;;;;5.30;3.72;;;16.00;99.90;;;;;;5067729;28;20055;-74
2023/06/23 05:21:05;;;;;;;6.60;3.53;;;16.10;99.90;;;;;;5075790;28;20122;-75
2023/06/23 05:23:36;;;;;;;5.03;3.53;;;16.30;99.90;;;;;;5056226;28;20047;-73
2023/06/23 05:26:03;;;;;;;4.85;3.47;;;16.50;99.90;;;;;;5074486;28;20057;-74
2023/06/23 05:28:32;;;;;;;6.80;3.97;;;16.70;99.90;;;;;;5073328;28;20260;-74
2023/06/23 05:31:00;;;;;;;7.53;3.80;;;17.00;99.90;;;;;;5074091;28;20133;-75
2023/06/23 05:33:27;;;;;;;4.32;3.80;;;17.10;99.90;;;;;;5065625;28;20043;-74
2023/06/23 05:35:54;;;;;;;6.05;3.50;;;17.20;99.90;;;;;;5075967;28;20035;-75
2023/06/23 05:38:21;;;;;;;7.05;3.72;;;17.30;99.90;;;;;;5075910;28;20036;-74
2023/06/23 05:40:47;;;;;;;6.50;3.88;;;17.40;99.90;;;;;;5075974;28;20032;-74
2023/06/23 05:43:12;;;;;;;4.82;3.90;;;17.50;99.90;;;;;;5066983;28;20036;-74
2023/06/23 05:45:38;;;;;;;4.63;3.83;;;17.60;99.90;;;;;;5078230;28;20027;-74
2023/06/23 05:48:07;;;;;;;6.50;4.35;;;17.60;99.90;;;;;;5078489;28;20766;-73
2023/06/23 05:50:35;;;;;;;5.55;3.65;;;17.50;99.90;;;;;;5076439;28;20039;-74
2023/06/23 05:53:10;;;;;;;6.45;3.85;;;17.50;99.90;;;;;;5062613;28;20652;-74
2023/06/23 05:55:42;;;;;;;5.30;3.80;;;17.50;99.90;;;;;;5075989;28;20126;-74
2023/06/23 05:58:11;;;;;;;6.38;4.80;;;17.50;99.90;;;;;;5076210;28;20034;-74
2023/06/23 06:00:51;;;;;;;8.25;4.30;;;17.60;99.90;;;;;;5075142;28;20391;-73
2023/06/23 06:03:22;;;;;;;5.57;4.30;;;17.70;99.90;;;;;;5074852;28;20554;-74
2023/06/23 06:05:53;;;;;;;6.18;3.58;;;17.90;99.90;;;;;;5078952;28;20105;-74
2023/06/23 06:08:20;;;;;;;;;;;18.20;99.90;;;;;;5073678;28;20055;-74
2023/06/23 06:10:46;;;;;;;324.52;185.80;;;18.30;99.90;;;;;;5077255;28;19908;-74
2023/06/23 06:13:13;;;;;;;33.65;20.40;;;18.50;99.90;;;;;;5076424;28;20117;-74
2023/06/23 06:15:39;;;;;;;6.85;4.53;;;18.70;99.90;;;;;;5074977;28;20032;-74
2023/06/23 06:18:07;;;;;;;8.43;4.25;;;19.00;99.90;;;;;;5064906;28;20032;-74
2023/06/23 06:20:34;;;;;;;6.63;4.70;;;19.10;99.90;;;;;;5066652;28;20056;-74
2023/06/23 06:23:02;;;;;;;9.63;4.07;;;19.20;99.90;;;;;;5070181;28;20036;-76
2023/06/23 06:25:28;;;;;;;90.05;64.03;;;19.40;99.90;;;;;;5059025;28;20039;-81
2023/06/23 06:27:56;;;;;;;31.38;20.70;;;19.50;99.90;;;;;;5064232;28;20031;-74
2023/06/23 06:30:22;;;;;;;10.73;7.55;;;19.50;99.90;;;;;;5069313;28;20119;-75
2023/06/23 06:32:51;;;;;;;7.93;5.80;;;19.50;99.90;;;;;;5077102;28;20039;-75
2023/06/23 06:35:18;;;;;;;5.32;3.72;;;19.50;99.90;;;;;;5078448;28;20121;-75
2023/06/23 06:37:47;;;;;;;6.22;3.70;;;19.60;99.90;;;;;;5078990;28;20024;-75
2023/06/23 06:40:15;;;;;;;5.75;3.55;;;19.60;99.90;;;;;;5076001;28;20465;-78
2023/06/23 06:42:41;;;;;;;30.70;21.65;;;19.70;99.90;;;;;;5072727;28;20024;-75
2023/06/23 06:45:07;;;;;;;14.73;9.95;;;19.80;99.90;;;;;;5054846;28;20050;-76
2023/06/23 06:47:42;;;;;;;9.05;4.45;;;19.90;99.90;;;;;;5045721;28;20028;-76
2023/06/23 06:50:10;;;;;;;6.35;3.95;;;20.00;99.90;;;;;;5046224;28;20055;-76
2023/06/23 06:52:38;;;;;;;4.82;3.78;;;20.10;99.90;;;;;;5046464;28;20405;-76
2023/06/23 06:55:04;;;;;;;6.13;3.83;;;20.20;99.90;;;;;;5067684;28;20039;-78
2023/06/23 06:57:33;;;;;;;4.60;3.70;;;20.40;99.90;;;;;;5055338;28;20032;-76
2023/06/23 06:59:58;;;;;;;7.47;4.35;;;20.60;99.90;;;;;;5063046;28;20159;-77
2023/06/23 07:02:24;;;;;;;9.02;4.28;;;20.70;99.90;;;;;;5065375;28;20204;-78
2023/06/23 07:04:51;;;;;;;5.88;4.30;;;20.80;99.90;;;;;;5077511;28;20047;-79
2023/06/23 07:07:16;;;;;;;7.07;3.83;;;20.90;99.90;;;;;;5076395;28;20187;-76
2023/06/23 07:09:42;;;;;;;6.28;3.78;;;21.00;99.90;;;;;;5074506;28;20123;-76
2023/06/23 07:12:08;;;;;;;7.18;4.03;;;21.10;99.90;;;;;;5067230;28;20043;-86
2023/06/23 07:14:35;;;;;;;5.35;3.50;;;21.20;99.90;;;;;;5071889;28;20333;-78
2023/06/23 07:17:01;;;;;;;6.78;3.95;;;21.40;99.90;;;;;;5068203;28;20562;-75
2023/06/23 07:19:26;;;;;;;4.40;3.35;;;21.40;99.90;;;;;;5068612;28;20123;-75
2023/06/23 07:21:52;;;;;;;5.22;3.60;;;21.50;99.90;;;;;;5062727;28;20347;-76
2023/06/23 07:24:18;;;;;;;4.95;3.58;;;21.60;99.90;;;;;;5061550;28;20074;-78
2023/06/23 07:26:43;;;;;;;7.53;4.28;;;21.90;99.90;;;;;;5069264;28;20060;-76
2023/06/23 07:29:09;;;;;;;5.75;3.78;;;22.30;99.90;;;;;;5063900;28;20437;-79
2023/06/23 07:31:37;;;;;;;6.32;3.80;;;22.70;99.90;;;;;;5066485;28;20032;-75
2023/06/23 07:34:03;;;;;;;4.00;3.28;;;23.30;99.90;;;;;;5075857;28;20509;-77
2023/06/23 07:36:28;;;;;;;7.70;3.85;;;24.70;99.90;;;;;;5074448;28;20051;-77
2023/06/23 07:38:54;;;;;;;8.48;3.78;;;26.20;99.90;;;;;;5073150;28;20401;-77
2023/06/23 07:41:19;;;;;;;4.57;2.72;;;27.40;99.90;;;;;;5072640;28;20403;-77
2023/06/23 07:43:45;;;;;;;6.60;3.35;;;28.50;99.90;;;;;;5071003;28;20063;-75
2023/06/23 07:46:11;;;;;;;10.35;3.55;;;29.20;99.90;;;;;;5077053;28;20482;-76
2023/06/23 07:48:37;;;;;;;6.18;3.05;;;29.70;97.90;;;;;;5076121;28;20114;-74
2023/06/23 07:51:02;;;;;;;3.72;3.10;;;30.10;96.10;;;;;;5067031;28;20025;-75
2023/06/23 07:53:28;;;;;;;5.40;3.40;;;29.90;94.50;;;;;;5058575;28;20024;-74
2023/06/23 07:55:54;;;;;;;3.95;3.05;;;29.70;95.30;;;;;;5066432;28;20024;-76
2023/06/23 07:58:19;;;;;;;3.85;2.90;;;30.00;94.90;;;;;;5069840;28;20113;-74
2023/06/23 08:00:46;;;;;;;4.97;2.90;;;30.10;95.20;;;;;;5074347;28;20029;-74
2023/06/23 08:03:12;;;;;;;5.50;2.75;;;30.40;92.90;;;;;;5072572;28;20029;-84
2023/06/23 08:05:38;;;;;;;3.60;2.55;;;31.20;90.90;;;;;;5066736;28;20044;-76
2023/06/23 08:08:04;;;;;;;4.95;3.00;;;32.00;88.50;;;;;;5071159;28;20024;-79
2023/06/23 08:10:30;;;;;;;4.55;2.60;;;33.20;78.00;;;;;;5069320;28;20036;-88
2023/06/23 08:12:55;;;;;;;4.82;2.60;;;34.00;75.30;;;;;;5067737;28;20127;-82
2023/06/23 08:15:21;;;;;;;5.50;2.80;;;35.10;71.10;;;;;;5067058;28;20035;-79
2023/06/23 08:17:48;;;;;;;4.15;2.40;;;36.20;64.50;;;;;;5066416;28;20055;-77
2023/06/23 08:20:14;;;;;;;6.88;3.13;;;37.40;61.00;;;;;;5062441;28;20844;-82
2023/06/23 08:22:40;;;;;;;3.10;2.53;;;38.50;54.80;;;;;;5070570;28;20133;-77
2023/06/23 08:25:08;;;;;;;3.08;2.75;;;39.50;51.20;;;;;;5056713;28;20650;-77
2023/06/23 08:27:34;;;;;;;3.45;2.60;;;40.20;51.90;;;;;;5046644;28;20467;-77
2023/06/23 08:29:59;;;;;;;2.97;2.47;;;40.80;48.30;;;;;;5063547;28;20067;-78
2023/06/23 08:32:25;;;;;;;7.38;2.58;;;41.20;44.70;;;;;;5062728;28;20483;-78
2023/06/23 08:34:50;;;;;;;2.88;2.15;;;41.00;46.00;;;;;;5061453;28;20039;-77
2023/06/23 08:37:16;;;;;;;3.75;2.60;;;40.90;44.10;;;;;;5059218;28;20098;-77
2023/06/23 08:39:41;;;;;;;3.10;2.50;;;40.90;43.00;;;;;;5058096;28;20035;-77
2023/06/23 08:42:08;;;;;;;3.35;2.40;;;40.90;45.30;;;;;;5064172;28;20488;-77
2023/06/23 08:44:37;;;;;;;4.28;2.38;;;40.70;43.40;;;;;;5056000;28;20081;-77
2023/06/23 08:47:04;;;;;;;3.10;2.15;;;40.20;43.90;;;;;;5062054;28;20016;-77
2023/06/23 08:49:37;;;;;;;3.55;2.53;;;39.70;43.30;;;;;;5059564;28;20550;-77
2023/06/23 08:52:03;;;;;;;3.15;2.35;;;39.10;43.40;;;;;;5068855;28;20020;-77
2023/06/23 08:54:30;;;;;;;4.65;2.28;;;39.10;44.40;;;;;;5066153;28;20491;-77
2023/06/23 08:56:56;;;;;;;3.40;2.30;;;39.10;44.70;;;;;;5065691;28;20058;-77
2023/06/23 08:59:22;;;;;;;4.28;2.67;;;39.10;43.60;;;;;;5065424;28;20028;-80
2023/06/23 09:01:47;;;;;;;3.47;2.50;;;38.70;44.10;;;;;;5064505;28;20559;-74
2023/06/23 09:04:14;;;;;;;3.28;2.40;;;38.30;44.50;;;;;;5063870;28;20570;-77
2023/06/23 09:06:40;;;;;;;2.85;2.47;;;38.40;44.80;;;;;;5061923;28;20032;-75
2023/06/23 09:09:06;;;;;;;3.47;2.40;;;38.40;46.20;;;;;;5069738;28;20062;-78
2023/06/23 09:11:32;;;;;;;3.92;2.58;;;38.80;45.60;;;;;;5072395;28;20050;-76
2023/06/23 09:13:59;;;;;;;4.57;2.40;;;38.80;43.50;;;;;;5074811;28;20034;-74
2023/06/23 09:16:26;;;;;;;4.50;2.70;;;38.60;44.00;;;;;;5075950;28;20089;-75
2023/06/23 09:18:52;;;;;;;3.75;2.33;;;38.40;45.00;;;;;;5063272;28;20039;-74
2023/06/23 09:21:20;;;;;;;4.95;2.60;;;37.60;45.10;;;;;;5063747;28;20529;-75
2023/06/23 09:24:02;;;;;;;4.43;2.78;;;36.90;46.70;;;;;;5063988;28;20063;-75
2023/06/23 09:26:27;;;;;;;4.40;2.88;;;36.00;47.70;;;;;;5061227;28;20240;-74
2023/06/23 09:29:15;;;;;;;3.72;2.80;;;35.20;49.00;;;;;;5063748;28;20020;-75
2023/06/23 09:31:42;;;;;;;4.65;2.78;;;34.50;52.50;;;;;;5074869;28;20071;-74
2023/06/23 09:34:08;;;;;;;5.18;2.70;;;34.10;53.20;;;;;;5070426;28;20062;-74
2023/06/23 09:36:35;;;;;;;5.68;2.90;;;33.90;55.10;;;;;;5072972;28;20519;-74
2023/06/23 09:39:01;;;;;;;4.30;2.40;;;33.60;53.00;;;;;;5073656;28;20035;-74
2023/06/23 09:41:31;;;;;;;4.90;2.80;;;33.60;54.40;;;;;;5069492;28;20035;-74
2023/06/23 09:43:57;;;;;;;5.40;2.80;;;33.10;52.30;;;;;;5065040;28;20032;-73
2023/06/23 09:46:23;;;;;;;4.13;2.47;;;33.20;55.30;;;;;;5066661;28;20154;-74
2023/06/23 09:48:49;;;;;;;5.07;2.40;;;33.00;54.70;;;;;;5071324;28;20120;-74
2023/06/23 09:51:19;;;;;;;3.67;2.63;;;33.00;53.90;;;;;;5066043;28;20032;-75
2023/06/23 09:53:45;;;;;;;3.17;2.67;;;33.00;53.10;;;;;;5062624;28;20674;-74
2023/06/23 09:56:16;;;;;;;6.35;2.92;;;33.20;55.10;;;;;;5063705;28;20667;-76
2023/06/23 09:58:42;;;;;;;;;;;32.90;54.50;;;;;;5072164;28;20035;-76
2023/06/23 10:01:13;;;;;;;3.92;2.80;;;32.90;57.00;;;;;;5079578;28;20339;-75
2023/06/23 10:03:46;;;;;;;3.63;2.47;;;33.40;57.80;;;;;;5080860;28;20446;-76
2023/06/23 10:06:34;;;;;;;2.85;2.15;;;33.40;52.20;;;;;;5074024;28;20114;-75
2023/06/23 10:09:02;;;;;;;2.55;1.90;;;33.30;53.10;;;;;;5072806;28;20551;-75
2023/06/23 10:11:36;;;;;;;3.50;2.10;;;33.60;51.30;;;;;;5078387;28;20498;-75
2023/06/23 10:14:08;;;;;;;3.60;2.40;;;34.40;54.00;;;;;;5064972;28;20455;-75
2023/06/23 10:16:35;;;;;;;5.32;2.05;;;35.50;48.90;;;;;;5069251;28;20063;-75
2023/06/23 10:19:01;;;;;;;4.50;2.00;;;35.90;50.00;;;;;;5078302;28;20071;-75
2023/06/23 10:21:27;;;;;;;4.32;1.77;;;35.90;47.40;;;;;;5073244;28;20300;-75
2023/06/23 10:23:58;;;;;;;3.05;2.10;;;35.80;46.10;;;;;;5071132;28;20529;-75
2023/06/23 10:26:25;;;;;;;4.07;2.13;;;36.10;49.50;;;;;;5069108;28;20429;-75
2023/06/23 10:28:53;;;;;;;2.65;1.85;;;36.10;50.70;;;;;;5078244;28;20348;-75
2023/06/23 10:31:21;;;;;;;7.03;2.20;;;36.30;48.50;;;;;;5069408;28;20056;-75
2023/06/23 10:33:47;;;;;;;3.95;2.10;;;36.70;47.40;;;;;;5073297;28;20129;-77
2023/06/23 10:36:19;;;;;;;4.50;2.22;;;36.20;46.00;;;;;;5067758;28;20107;-76
2023/06/23 10:38:47;;;;;;;4.43;2.20;;;35.10;46.00;;;;;;5074906;28;20032;-75
2023/06/23 10:41:14;;;;;;;2.85;2.25;;;35.00;46.80;;;;;;5075435;28;20080;-76
2023/06/23 10:43:42;;;;;;;2.92;2.63;;;35.60;49.70;;;;;;5073079;28;20583;-75
2023/06/23 10:46:07;;;;;;;5.78;3.15;;;36.20;52.10;;;;;;5070035;28;20028;-75
2023/06/23 10:48:34;;;;;;;5.20;3.00;;;37.20;49.00;;;;;;5073402;28;20046;-75
2023/06/23 10:51:00;;;;;;;6.15;3.00;;;37.80;47.10;;;;;;5075659;28;20024;-74
2023/06/23 10:53:31;;;;;;;6.22;2.90;;;38.10;46.50;;;;;;5073870;28;20028;-75
2023/06/23 10:55:57;;;;;;;;;;;38.90;47.30;;;;;;5066260;28;20032;-75
2023/06/23 10:58:27;;;;;;;4.63;2.25;;;40.00;48.40;;;;;;5070613;28;20263;-75
2023/06/23 11:00:52;;;;;;;4.22;2.20;;;40.50;45.00;;;;;;5080659;28;20506;-75
2023/06/23 11:03:36;;;;;;;4.18;2.40;;;40.60;41.30;;;;;;5078542;28;20055;-80
2023/06/23 11:06:09;;;;;;;3.00;2.40;;;39.80;43.70;;;;;;5075385;28;20047;-76
2023/06/23 11:08:37;;;;;;;3.28;2.47;;;37.90;44.00;;;;;;5057463;28;20025;-76
2023/06/23 11:11:05;;;;;;;5.05;2.42;;;38.20;44.80;;;;;;5055397;28;20673;-76
2023/06/23 11:13:35;;;;;;;3.70;2.10;;;37.50;47.80;;;;;;5058217;28;20034;-75
2023/06/23 11:16:02;;;;;;;3.00;2.30;;;38.10;48.70;;;;;;5067442;28;20028;-75
2023/06/23 11:18:28;;;;;;;5.35;2.47;;;37.80;47.50;;;;;;5068511;28;20047;-75
2023/06/23 11:20:59;;;;;;;2.85;1.90;;;38.70;49.30;;;;;;5071012;28;20024;-76
2023/06/23 11:23:25;;;;;;;3.00;2.10;;;39.40;45.50;;;;;;5071889;28;20281;-76
2023/06/23 11:25:52;;;;;;;2.23;2.03;;;39.70;45.50;;;;;;4720539;28;10000403;-76
2023/06/23 11:28:27;;;;;;;2.95;1.83;;;39.40;44.40;;;;;;4366455;28;10000735;-76
2023/06/23 11:31:00;;;;;;;2.33;2.13;;;38.70;45.50;;;;;;5064960;28;20035;-76
2023/06/23 11:33:26;;;;;;;2.95;2.20;;;36.80;43.90;;;;;;5069415;28;20020;-76
2023/06/23 11:35:53;;;;;;;4.05;2.38;;;35.80;52.40;;;;;;5068669;28;20487;-76
2023/06/23 11:38:19;;;;;;;5.15;2.72;;;34.40;53.60;;;;;;5071548;28;20319;-76
2023/06/23 11:40:46;;;;;;;6.07;3.10;;;33.50;53.10;;;;;;5077578;28;20012;-76
2023/06/23 11:43:14;;;;;;;5.88;2.80;;;32.70;54.60;;;;;;5062285;28;20031;-76
2023/06/23 11:45:51;;;;;;;5.32;2.95;;;32.10;58.70;;;;;;5067913;28;20054;-76
2023/06/23 11:48:17;;;;;;;8.05;2.92;;;32.50;59.00;;;;;;5074109;28;20028;-76
2023/06/23 11:50:43;;;;;;;4.85;2.85;;;32.50;58.50;;;;;;5079850;28;20089;-76
2023/06/23 11:53:09;;;;;;;5.40;2.95;;;31.80;60.40;;;;;;5078151;28;20120;-76
2023/06/23 11:55:35;;;;;;;6.13;2.88;;;31.70;64.40;;;;;;5073759;28;20024;-75
2023/06/23 11:58:01;;;;;;;5.97;3.20;;;31.40;66.40;;;;;;5053886;28;20416;-76
2023/06/23 12:00:27;;;;;;;4.05;2.70;;;31.40;64.10;;;;;;5072418;28;20024;-76
2023/06/23 12:02:54;;;;;;;4.82;2.90;;;31.20;65.40;;;;;;5072676;28;20122;-77
2023/06/23 12:05:20;;;;;;;4.63;2.88;;;31.10;73.30;;;;;;5071784;28;20056;-76
2023/06/23 12:07:47;;;;;;;4.50;2.80;;;31.10;65.40;;;;;;5070344;28;20335;-76
2023/06/23 12:10:13;;;;;;;4.53;2.58;;;31.20;76.10;;;;;;5075447;28;20039;-76
2023/06/23 12:12:39;;;;;;;3.92;2.78;;;31.60;68.30;;;;;;5076064;28;20541;-75
2023/06/23 12:15:05;;;;;;;4.30;3.10;;;31.40;64.00;;;;;;5067919;28;20150;-75
2023/06/23 12:17:30;;;;;;;5.63;2.70;;;30.70;75.00;;;;;;5068652;28;20495;-76
2023/06/23 12:19:57;;;;;;;3.60;2.50;;;30.90;73.50;;;;;;5075429;28;20031;-75
2023/06/23 12:22:34;;;;;;;4.95;3.03;;;31.10;69.50;;;;;;5068735;28;20055;-75
2023/06/23 12:25:01;;;;;;;4.45;2.85;;;30.90;66.40;;;;;;5074836;28;20052;-75
2023/06/23 12:27:26;;;;;;;5.38;2.70;;;30.70;78.10;;;;;;5073121;28;20097;-75
2023/06/23 12:29:52;;;;;;;3.78;2.60;;;31.20;79.40;;;;;;5074229;28;20455;-77
2023/06/23 12:32:17;;;;;;;6.68;2.92;;;31.00;70.70;;;;;;5063236;28;20058;-76
2023/06/23 12:34:45;;;;;;;4.57;2.70;;;30.70;70.00;;;;;;5068754;28;20541;-77
2023/06/23 12:37:16;;;;;;;6.95;2.60;;;30.70;73.30;;;;;;5076169;28;20387;-76
2023/06/23 12:39:51;;;;;;;5.80;2.75;;;31.00;75.40;;;;;;5077155;28;20081;-75
2023/06/23 12:42:16;;;;;;;4.95;2.97;;;31.20;72.30;;;;;;5076006;28;20043;-75
2023/06/23 12:44:42;;;;;;;3.83;2.85;;;31.00;64.80;;;;;;5074948;28;20503;-75
2023/06/23 12:47:08;;;;;;;3.40;2.65;;;30.80;68.40;;;;;;5074782;28;20115;-77
2023/06/23 12:49:37;;;;;;;6.07;3.15;;;30.50;71.10;;;;;;5075417;28;20451;-75
2023/06/23 12:52:04;;;;;;;4.43;3.00;;;30.60;70.10;;;;;;5076500;28;20031;-77
2023/06/23 12:54:30;;;;;;;4.18;2.58;;;30.40;78.60;;;;;;5062734;28;20036;-76